Air Resources Laboratory banner image
Air Resources Laboratory web site National Oceanic and Atmospheric Administration (NOAA)

al metar


K79J 121556Z AUTO 34016G23KT 10SM CLR 14/01 A3006 RMK AO2 SLP178 T01390006=
KANB 121553Z AUTO 34011G23KT BKN050 09/00 A3004 RMK AO2 SLP178 T00940000 $=
KAUO 121556Z AUTO 33014G24KT 10SM CLR 10/01 A3002 RMK AO2 SLP189 T01000006=
KBFM 121553Z 34014KT 10SM CLR 15/02 A3014 RMK AO2 SLP206 T01500022=
KBHM 121553Z 32011G19KT 10SM FEW042 FEW050 11/00 A3008 RMK AO2 SLP185 T01060000=
KDCU 121553Z AUTO 32015G23KT 10SM OVC041 07/00 A3008 RMK AO2 PK WND 35026/1542
 SLP186 T00720000 $=
KDHN 121553Z 33020G26KT 10SM CLR 13/02 A3005 RMK AO2 PK WND 33026/1552 SLP172
 T01330022 $=
KEET 121553Z AUTO 34011G16KT 10SM CLR 11/01 A3006 RMK AO2 SLP181 T01060011=
KGAD 121556Z AUTO 32008KT 270V340 10SM OVC039 09/01 A3004 RMK AO2 SLP180
 T00890011=
KGZH 121553Z AUTO 33012G23KT 10SM CLR 12/00 A3010 RMK AO2 SLP193 T01220000=
KHSV 121553Z AUTO 32016KT 10SM OVC042 08/01 A3006 RMK AO2 SLP180 T00830006=
KLOR 121558Z AUTO 31013G20KT 8SM CLR 13/02 A3004 RMK AO2 SLP156 T01290020=
KMGM 121553Z 32013G19KT 10SM CLR 12/01 A3008 RMK AO2 SLP184 T01170006=
KMOB 121556Z 34015G20KT 10SM FEW200 14/01 A3014 RMK AO2 SLP206 T01390011=
KMSL 121553Z AUTO 32009G20KT 10SM OVC042 08/M02 A3011 RMK AO2 SLP195 T00831022=
KMXF 121556Z AUTO 31015G21KT 10SM CLR 12/01 A3006 RMK AO2 SLP182 T01180014 $=
KOZR 121556Z AUTO 31011G17KT 10SM CLR 13/01 A3003 RMK AO2 PK WND 34026/50
 SLP172 T01290012=
KSXS 121558Z AUTO 34013G23KT 10SM M 12/01 A3004 RMK AO2 SLP175 T01160014 $=
KTCL 121553Z 32009G17KT 290V360 10SM CLR 11/02 A3012 RMK AO2 SLP199 T01110017=
KTOI 121553Z AUTO 34017G23KT CLR 12/01 A3006 RMK AO2 PK WND 33027/1534 SLP179
 T01220006 PWINO $=